createdAt,value
2023-03-23T15:58:54.136Z,5.32
2023-03-23T16:01:26.520Z,3.55
2023-03-23T16:03:57.113Z,3.97
2023-03-23T16:06:26.728Z,4.45
2023-03-23T16:08:56.022Z,3.78
2023-03-23T16:11:29.699Z,4.87
2023-03-23T16:13:58.861Z,3.20
2023-03-23T16:16:27.219Z,4.12
2023-03-23T16:18:55.961Z,3.47
2023-03-23T16:21:26.689Z,8.13
2023-03-23T16:23:55.034Z,3.70
2023-03-23T16:26:22.853Z,3.25
2023-03-23T16:28:53.285Z,3.92
2023-03-23T16:31:23.230Z,4.43
2023-03-23T16:33:53.594Z,8.52
2023-03-23T16:36:21.504Z,4.00
2023-03-23T16:38:52.464Z,4.78
2023-03-23T16:41:22.234Z,3.50
2023-03-23T16:43:50.404Z,3.50
2023-03-23T16:46:18.306Z,4.12
2023-03-23T16:48:47.298Z,3.60
2023-03-23T16:51:15.185Z,3.35
2023-03-23T16:53:43.012Z,6.53
2023-03-23T16:56:11.104Z,4.53
2023-03-23T16:58:39.068Z,3.28
2023-03-23T17:01:07.793Z,4.20
2023-03-23T17:03:36.304Z,3.40
2023-03-23T17:06:04.673Z,4.82
2023-03-23T17:08:32.926Z,5.35
2023-03-23T17:11:01.810Z,3.90
2023-03-23T17:13:29.945Z,4.10
2023-03-23T17:15:57.880Z,8.23
2023-03-23T17:18:26.448Z,4.28
2023-03-23T17:20:54.517Z,4.87
2023-03-23T17:23:23.180Z,3.42
2023-03-23T17:25:52.123Z,4.45
2023-03-23T17:28:21.011Z,5.80
2023-03-23T17:30:49.122Z,4.00
2023-03-23T17:33:17.525Z,4.37
2023-03-23T17:35:47.339Z,4.10
2023-03-23T17:38:15.497Z,6.00
2023-03-23T17:40:43.988Z,3.97
2023-03-23T17:43:11.980Z,4.68
2023-03-23T17:45:41.642Z,5.40
2023-03-23T17:48:10.880Z,4.25
2023-03-23T17:50:38.914Z,6.40
2023-03-23T17:53:06.688Z,6.25
2023-03-23T17:55:35.044Z,4.87
2023-03-23T17:58:02.917Z,4.03
2023-03-23T18:00:31.041Z,4.68
2023-03-23T18:03:00.923Z,4.75
2023-03-23T18:05:28.905Z,4.00
2023-03-23T18:07:56.704Z,4.37
2023-03-23T18:10:25.166Z,4.40
2023-03-23T18:12:53.027Z,3.90
2023-03-23T18:15:20.762Z,5.10
2023-03-23T18:17:51.201Z,6.78
2023-03-23T18:20:19.355Z,5.03
2023-03-23T18:22:47.942Z,5.07
2023-03-23T18:25:16.368Z,6.65
2023-03-23T18:27:47.007Z,4.37
2023-03-23T18:32:46.190Z,4.75
2023-03-23T18:35:14.138Z,7.62
2023-03-23T18:37:43.650Z,5.87
2023-03-23T18:40:12.175Z,7.62
2023-03-23T18:42:42.273Z,7.20
2023-03-23T18:45:10.381Z,7.30
2023-03-23T18:47:39.650Z,10.10
2023-03-23T18:50:09.518Z,10.50
2023-03-23T18:52:38.318Z,7.85
2023-03-23T18:55:06.798Z,10.90
2023-03-23T18:57:34.672Z,8.80
2023-03-23T19:00:04.876Z,8.93
2023-03-23T19:02:33.660Z,12.48
2023-03-23T19:05:01.835Z,8.57
2023-03-23T19:07:31.474Z,8.27
2023-03-23T19:10:05.782Z,11.43
2023-03-23T19:12:34.065Z,7.45
2023-03-23T19:15:02.863Z,8.90
2023-03-23T19:17:31.167Z,9.73
2023-03-23T19:19:59.070Z,10.00
2023-03-23T19:22:27.458Z,10.88
2023-03-23T19:24:55.546Z,9.02
2023-03-23T19:27:23.594Z,9.20
2023-03-23T19:29:52.124Z,8.88
2023-03-23T19:32:21.009Z,8.00
2023-03-23T19:34:50.961Z,11.05
2023-03-23T19:37:20.235Z,7.37
2023-03-23T19:39:48.540Z,10.38
2023-03-23T19:42:18.557Z,7.47
2023-03-23T19:44:47.813Z,9.13
2023-03-23T19:47:16.376Z,7.47
2023-03-23T19:49:44.956Z,9.05
2023-03-23T19:52:15.012Z,8.38
2023-03-23T19:54:44.377Z,7.70
2023-03-23T19:57:12.529Z,7.47
2023-03-23T19:59:41.097Z,7.00
2023-03-23T20:02:12.311Z,8.05
2023-03-23T20:04:41.894Z,8.05
2023-03-23T20:07:10.644Z,11.10
2023-03-23T20:09:39.454Z,7.87
2023-03-23T20:12:07.979Z,11.35
2023-03-23T20:14:37.527Z,7.05
2023-03-23T20:17:09.785Z,8.00
2023-03-23T20:19:38.847Z,7.68
2023-03-23T20:22:06.800Z,7.85
2023-03-23T20:24:34.866Z,7.75
2023-03-23T20:27:04.059Z,6.57
2023-03-23T20:29:33.523Z,9.18
2023-03-23T20:32:01.766Z,8.00
2023-03-23T20:34:31.242Z,7.80
2023-03-23T20:37:04.139Z,8.27
2023-03-23T20:39:33.285Z,8.02
2023-03-23T20:42:04.396Z,8.75
2023-03-23T20:44:35.084Z,7.82
2023-03-23T20:47:04.147Z,7.90
2023-03-23T20:49:34.800Z,7.60
2023-03-23T20:52:05.812Z,7.35
2023-03-23T20:54:35.741Z,7.45
2023-03-23T20:57:04.372Z,7.43
2023-03-23T20:59:32.496Z,10.88
2023-03-23T21:02:01.196Z,7.72
2023-03-23T21:04:30.284Z,7.78
2023-03-23T21:06:58.092Z,7.37
2023-03-23T21:09:26.604Z,10.13
2023-03-23T21:11:54.628Z,8.68
2023-03-23T21:14:22.991Z,8.52
2023-03-23T21:16:52.771Z,8.55
2023-03-23T21:19:21.856Z,8.50
2023-03-23T21:21:55.444Z,8.20
2023-03-23T21:24:30.119Z,7.45
2023-03-23T21:27:00.996Z,10.40
2023-03-23T21:29:30.929Z,7.85
2023-03-23T21:34:30.632Z,7.40
2023-03-23T21:36:58.692Z,9.25
2023-03-23T21:39:26.743Z,6.75
2023-03-23T21:41:57.891Z,9.30
2023-03-23T21:44:25.646Z,7.50
2023-03-23T21:46:54.796Z,8.57
2023-03-23T21:49:30.118Z,9.23
2023-03-23T21:51:58.080Z,7.93
2023-03-23T21:54:30.162Z,7.60
2023-03-23T21:56:58.959Z,7.70
2023-03-23T21:59:28.295Z,8.65
2023-03-23T22:01:58.345Z,9.10
2023-03-23T22:04:28.316Z,10.02
2023-03-23T22:06:56.933Z,10.90
2023-03-23T22:09:24.851Z,8.38
2023-03-23T22:11:53.057Z,8.93
2023-03-23T22:14:20.985Z,8.75
2023-03-23T22:16:49.055Z,8.10
2023-03-23T22:19:17.514Z,9.35
2023-03-23T22:21:45.566Z,9.52
2023-03-23T22:24:14.007Z,8.35
2023-03-23T22:26:42.272Z,8.38
2023-03-23T22:29:11.344Z,8.57
2023-03-23T22:31:40.007Z,8.07
2023-03-23T22:34:08.721Z,8.95
2023-03-23T22:36:37.051Z,10.45
2023-03-23T22:39:06.477Z,9.07
2023-03-23T22:41:38.159Z,11.40
2023-03-23T22:44:12.735Z,10.48
2023-03-23T22:46:41.415Z,8.38
2023-03-23T22:49:09.595Z,11.82
2023-03-23T22:51:38.350Z,7.72
2023-03-23T22:54:07.061Z,9.80
2023-03-23T22:56:37.255Z,9.45
2023-03-23T22:59:08.353Z,9.00
2023-03-23T23:01:37.302Z,8.10
2023-03-23T23:04:05.726Z,7.87
2023-03-23T23:06:34.590Z,9.18
2023-03-23T23:09:03.844Z,8.55
2023-03-23T23:11:32.000Z,7.28
2023-03-23T23:14:00.071Z,8.88
2023-03-23T23:16:28.614Z,8.68
2023-03-23T23:18:56.559Z,8.85
2023-03-23T23:21:29.203Z,10.07
2023-03-23T23:23:58.045Z,9.30
2023-03-23T23:26:25.883Z,8.93
2023-03-23T23:28:56.482Z,7.70
2023-03-23T23:31:29.853Z,9.57
2023-03-23T23:33:59.730Z,9.60
2023-03-23T23:36:30.340Z,7.57
2023-03-23T23:39:00.652Z,7.37
2023-03-23T23:41:30.356Z,8.60
2023-03-23T23:43:59.561Z,9.27
2023-03-23T23:46:30.596Z,10.63
2023-03-23T23:49:00.335Z,9.30
2023-03-23T23:51:29.126Z,8.27
2023-03-23T23:54:01.589Z,9.05
2023-03-23T23:56:30.037Z,12.23
2023-03-23T23:58:58.677Z,7.47
